Time;durP1;ratioP1;P1;durP2;ratioP2;P2;SDS_P1;SDS_P2;PMS_P1;PMS_P2;Temp;Humidity;BMP_temperature;BMP_pressure;BME280_temperature;BME280_humidity;BME280_pressure;Samples;Min_cycle;Max_cycle;Signal;HPM_P1;HPM_P2
2021/10/06 00:04:16;;;;;;;9.4;5.6;;;;;;;12.58;100;98492.09;;;;
2021/10/06 00:14:15;;;;;;;9;6;;;;;;;12.36;100;98492.29;;;;
2021/10/06 00:24:14;;;;;;;13;5.3;;;;;;;12.22;100;98489.77;;;;
2021/10/06 00:34:13;;;;;;;7.2;5.9;;;;;;;12.24;100;98492.16;;;;
2021/10/06 00:44:12;;;;;;;10.4;6.5;;;;;;;12.11;100;98497.41;;;;
2021/10/06 00:54:11;;;;;;;10;5.4;;;;;;;12.05;100;98474.38;;;;
2021/10/06 01:04:11;;;;;;;18.4;4.9;;;;;;;12.56;100;98483.52;;;;
2021/10/06 01:14:10;;;;;;;9.2;4.8;;;;;;;13.04;100;98478.56;;;;
2021/10/06 01:24:09;;;;;;;6.1;4.2;;;;;;;13.43;100;98463.85;;;;
2021/10/06 01:34:09;;;;;;;9;4.9;;;;;;;13.49;100;98473.39;;;;
2021/10/06 01:44:08;;;;;;;9.7;6.4;;;;;;;13.32;100;98488.95;;;;
2021/10/06 01:54:07;;;;;;;8;5.1;;;;;;;13.47;100;98512.72;;;;
2021/10/06 02:04:07;;;;;;;10.1;5.7;;;;;;;13.45;100;98502.23;;;;
2021/10/06 02:14:06;;;;;;;9.6;4.8;;;;;;;13.31;100;98498.97;;;;
2021/10/06 02:24:06;;;;;;;7.8;4.5;;;;;;;13.03;100;98479.67;;;;
2021/10/06 02:34:06;;;;;;;7;5;;;;;;;13.27;100;98481;;;;
2021/10/06 02:44:04;;;;;;;9.3;5.4;;;;;;;13.43;100;98463.09;;;;
2021/10/06 02:54:04;;;;;;;13.1;7;;;;;;;13.01;100;98481.92;;;;
2021/10/06 03:04:03;;;;;;;9.4;6;;;;;;;12.98;100;98479.84;;;;
2021/10/06 03:14:03;;;;;;;9;4.7;;;;;;;12.84;100;98468.44;;;;
2021/10/06 03:24:02;;;;;;;12.2;5.2;;;;;;;13.1;100;98509.75;;;;
2021/10/06 03:34:02;;;;;;;9.4;6.5;;;;;;;12.85;100;98504.41;;;;
2021/10/06 03:44:02;;;;;;;20.4;7.7;;;;;;;12.79;100;98519.23;;;;
2021/10/06 03:54:02;;;;;;;11.8;8.6;;;;;;;12.9;100;98523.17;;;;
2021/10/06 04:04:03;;;;;;;11.4;7.7;;;;;;;12.76;100;98546.92;;;;
2021/10/06 04:14:02;;;;;;;10.9;7.3;;;;;;;12.7;100;98551.72;;;;
2021/10/06 04:23:58;;;;;;;11.6;8.8;;;;;;;12.65;100;98551.88;;;;
2021/10/06 04:33:57;;;;;;;10.4;8.1;;;;;;;12.69;100;98576.36;;;;
2021/10/06 04:43:58;;;;;;;15.5;9.2;;;;;;;12.61;100;98565.23;;;;
2021/10/06 04:53:56;;;;;;;11.8;8.2;;;;;;;12.48;100;98573.53;;;;
2021/10/06 05:03:55;;;;;;;12.7;8;;;;;;;12.43;100;98577.19;;;;
2021/10/06 05:13:54;;;;;;;13;8.5;;;;;;;12.38;100;98604.39;;;;
2021/10/06 05:23:54;;;;;;;11.3;7.4;;;;;;;12.5;100;98595.62;;;;
2021/10/06 05:33:53;;;;;;;15.3;10.3;;;;;;;12.5;100;98626.16;;;;
2021/10/06 05:43:52;;;;;;;13.9;8.8;;;;;;;12.58;100;98616.45;;;;
2021/10/06 05:53:52;;;;;;;15.2;8.9;;;;;;;12.48;100;98633.8;;;;
2021/10/06 06:03:51;;;;;;;14.9;9.8;;;;;;;12.69;100;98643.96;;;;
2021/10/06 06:13:50;;;;;;;15.9;14.3;;;;;;;12.63;100;98658.77;;;;
2021/10/06 06:23:50;;;;;;;13.1;10.7;;;;;;;12.58;100;98662.41;;;;
2021/10/06 06:33:49;;;;;;;11.9;8.1;;;;;;;12.61;100;98665.28;;;;
2021/10/06 06:43:48;;;;;;;12.7;7.9;;;;;;;12.84;100;98665.12;;;;
2021/10/06 06:53:48;;;;;;;11.8;9.6;;;;;;;12.86;100;98681.81;;;;
2021/10/06 07:03:47;;;;;;;13.8;8.8;;;;;;;13.09;100;98710.29;;;;
2021/10/06 07:13:46;;;;;;;11.7;9.1;;;;;;;13.4;100;98715.48;;;;
2021/10/06 07:23:46;;;;;;;17;10.3;;;;;;;13.38;100;98736.68;;;;
2021/10/06 07:33:47;;;;;;;13.6;10.8;;;;;;;13.6;100;98728.35;;;;
2021/10/06 07:43:45;;;;;;;11.7;9.2;;;;;;;13.63;100;98735.03;;;;
2021/10/06 07:53:44;;;;;;;15.6;10.4;;;;;;;13.75;100;98749.47;;;;
2021/10/06 08:03:44;;;;;;;23;8.8;;;;;;;13.85;100;98757.24;;;;
2021/10/06 08:13:43;;;;;;;14.7;12.1;;;;;;;13.96;100;98763.1;;;;
2021/10/06 08:23:43;;;;;;;12.5;10.7;;;;;;;13.82;100;98768.73;;;;
2021/10/06 08:33:42;;;;;;;13.4;11.8;;;;;;;13.81;100;98761.75;;;;
2021/10/06 08:43:42;;;;;;;16.4;10.5;;;;;;;13.95;100;98777.8;;;;
2021/10/06 08:53:41;;;;;;;17;11.7;;;;;;;14.27;100;98776.35;;;;
2021/10/06 09:03:41;;;;;;;16;11.4;;;;;;;14.33;100;98780.49;;;;
2021/10/06 09:13:42;;;;;;;16.2;10.5;;;;;;;14.25;100;98786.74;;;;
2021/10/06 09:23:40;;;;;;;14.4;9.8;;;;;;;14.33;100;98783.2;;;;
2021/10/06 09:33:40;;;;;;;13.5;9.4;;;;;;;14.19;100;98786.14;;;;
2021/10/06 09:43:39;;;;;;;14.2;11.5;;;;;;;14.74;100;98786.02;;;;
2021/10/06 09:53:38;;;;;;;14.9;10.4;;;;;;;14.84;100;98791.05;;;;
2021/10/06 10:03:38;;;;;;;11.8;9.9;;;;;;;14.87;100;98798.53;;;;
2021/10/06 10:13:38;;;;;;;14.3;10.4;;;;;;;15.13;100;98790.97;;;;
2021/10/06 10:23:37;;;;;;;11.1;9;;;;;;;15.3;100;98797.4;;;;
2021/10/06 10:33:37;;;;;;;12.3;10.1;;;;;;;15.63;100;98806.38;;;;
2021/10/06 10:43:37;;;;;;;17.1;11.1;;;;;;;15.56;100;98797.97;;;;
2021/10/06 10:53:37;;;;;;;18;9.8;;;;;;;15.79;100;98799.16;;;;
2021/10/06 11:03:37;;;;;;;13.1;8.9;;;;;;;15.75;100;98803.7;;;;
2021/10/06 11:13:37;;;;;;;17.3;11.2;;;;;;;15.94;100;98825.7;;;;
2021/10/06 11:23:37;;;;;;;15.6;11.3;;;;;;;15.91;100;98814.72;;;;
2021/10/06 11:33:36;;;;;;;16.4;11.3;;;;;;;16.14;100;98805;;;;
2021/10/06 11:43:36;;;;;;;17;11.5;;;;;;;16.07;100;98808.28;;;;
2021/10/06 11:53:36;;;;;;;14.3;11.1;;;;;;;16.01;100;98809.64;;;;
2021/10/06 12:03:35;;;;;;;17.2;11.8;;;;;;;15.44;100;98800.63;;;;
2021/10/06 12:13:35;;;;;;;12.9;10.5;;;;;;;15.21;100;98797.45;;;;
2021/10/06 12:23:35;;;;;;;11.1;9;;;;;;;15.18;100;98805.47;;;;
2021/10/06 12:33:36;;;;;;;14.1;9.7;;;;;;;14.7;100;98804.07;;;;
2021/10/06 12:43:34;;;;;;;10.1;7.2;;;;;;;14.6;100;98801.74;;;;
2021/10/06 12:53:34;;;;;;;11.6;8.5;;;;;;;14.41;100;98813;;;;
2021/10/06 13:03:34;;;;;;;11.8;9;;;;;;;14.37;100;98816.71;;;;
2021/10/06 13:13:33;;;;;;;13.2;9.9;;;;;;;14.44;100;98817.77;;;;
2021/10/06 13:23:34;;;;;;;12.4;9.8;;;;;;;14.28;100;98824.04;;;;
2021/10/06 13:33:32;;;;;;;11.4;10.1;;;;;;;14.04;100;98830.03;;;;
2021/10/06 13:43:32;;;;;;;13.2;9.1;;;;;;;14.03;100;98841.98;;;;
2021/10/06 13:53:32;;;;;;;11.8;10.1;;;;;;;14.01;100;98849.66;;;;
2021/10/06 14:03:31;;;;;;;13.5;10.3;;;;;;;13.97;100;98854.92;;;;
2021/10/06 14:13:31;;;;;;;9.9;8.6;;;;;;;13.74;100;98858.16;;;;
2021/10/06 14:23:30;;;;;;;14.5;11.4;;;;;;;13.64;100;98872.81;;;;
2021/10/06 14:33:30;;;;;;;19.7;14.9;;;;;;;13.6;100;98863.77;;;;
2021/10/06 14:43:29;;;;;;;13.8;10.6;;;;;;;13.46;100;98879.38;;;;
2021/10/06 14:53:29;;;;;;;13.3;11.6;;;;;;;13.18;100;98880.79;;;;
2021/10/06 15:03:28;;;;;;;13.4;9.6;;;;;;;13.2;100;98887.47;;;;
2021/10/06 15:13:27;;;;;;;20.7;17.6;;;;;;;13.06;100;98887.58;;;;
2021/10/06 15:23:27;;;;;;;24.1;18.2;;;;;;;13.21;100;98893.69;;;;
2021/10/06 15:33:26;;;;;;;16.2;14.5;;;;;;;13.07;100;98886.48;;;;
2021/10/06 15:43:26;;;;;;;15.6;12.7;;;;;;;13.04;100;98903.35;;;;
2021/10/06 15:53:25;;;;;;;13.5;10.6;;;;;;;13.14;100;98901.48;;;;
2021/10/06 16:03:24;;;;;;;15.7;12.6;;;;;;;12.98;100;98914.64;;;;
2021/10/06 16:13:24;;;;;;;12.7;10;;;;;;;12.96;100;98922.25;;;;
2021/10/06 16:23:23;;;;;;;12.7;9.5;;;;;;;12.98;100;98930.88;;;;
2021/10/06 16:33:22;;;;;;;14.1;11.4;;;;;;;13.1;100;98934.59;;;;
2021/10/06 16:43:22;;;;;;;15.1;12.8;;;;;;;13.08;100;98942.17;;;;
2021/10/06 16:53:22;;;;;;;19.6;15.9;;;;;;;13.15;100;98952.59;;;;
2021/10/06 17:03:21;;;;;;;18.1;16.3;;;;;;;13.08;100;98960.34;;;;
2021/10/06 17:13:20;;;;;;;18.7;16.7;;;;;;;13.26;100;98972.05;;;;
2021/10/06 17:23:19;;;;;;;18;16.1;;;;;;;13.21;100;98967.56;;;;
2021/10/06 17:33:19;;;;;;;17.5;14.1;;;;;;;13.1;100;98968.96;;;;
2021/10/06 17:43:18;;;;;;;17.1;14.2;;;;;;;13.14;100;98985.38;;;;
2021/10/06 17:53:18;;;;;;;28.5;24.8;;;;;;;13.25;100;98979.36;;;;
2021/10/06 18:03:17;;;;;;;22.1;15.4;;;;;;;13.12;100;98977.55;;;;
2021/10/06 18:13:17;;;;;;;24.2;14.3;;;;;;;13.09;100;98989.01;;;;
2021/10/06 18:23:16;;;;;;;16.1;14.4;;;;;;;13.14;100;99001.61;;;;
2021/10/06 18:33:15;;;;;;;16.5;14.1;;;;;;;13.04;100;99005.38;;;;
2021/10/06 18:43:15;;;;;;;28.7;21.7;;;;;;;13.13;100;99010.83;;;;
2021/10/06 18:53:14;;;;;;;21.2;18.9;;;;;;;13.13;100;99005.41;;;;
2021/10/06 19:03:14;;;;;;;23.3;17.3;;;;;;;13.09;100;99022.28;;;;
2021/10/06 19:13:13;;;;;;;23.3;18.9;;;;;;;13;100;99048.49;;;;
2021/10/06 19:23:12;;;;;;;20.3;18.2;;;;;;;12.96;100;99052.13;;;;
2021/10/06 19:33:12;;;;;;;24;16.4;;;;;;;12.83;100;99061.13;;;;
2021/10/06 19:43:11;;;;;;;18.5;16.6;;;;;;;12.74;100;99068.41;;;;
2021/10/06 19:53:11;;;;;;;22.8;18;;;;;;;12.58;100;99074.2;;;;
2021/10/06 20:03:10;;;;;;;25.5;17.4;;;;;;;12.73;100;99078.42;;;;
2021/10/06 20:13:10;;;;;;;21.5;17.1;;;;;;;12.78;100;99080.98;;;;
2021/10/06 20:23:09;;;;;;;20.8;18.6;;;;;;;12.87;100;99078.34;;;;
2021/10/06 20:33:09;;;;;;;22.4;20;;;;;;;12.92;100;99081.7;;;;
2021/10/06 20:43:08;;;;;;;21.5;16.5;;;;;;;12.93;100;99077.9;;;;
2021/10/06 20:53:07;;;;;;;19.2;16.9;;;;;;;12.78;100;99089.1;;;;
2021/10/06 21:03:07;;;;;;;18;16.3;;;;;;;12.68;100;99094.77;;;;
2021/10/06 21:13:06;;;;;;;21.3;16;;;;;;;12.63;100;99103.02;;;;
2021/10/06 21:23:05;;;;;;;21.2;16.5;;;;;;;12.7;100;99094.47;;;;
2021/10/06 21:33:05;;;;;;;19.1;17;;;;;;;12.66;100;99107.81;;;;
2021/10/06 21:43:04;;;;;;;22.8;20.4;;;;;;;12.76;100;99104.05;;;;
2021/10/06 21:53:04;;;;;;;20;17.2;;;;;;;12.83;100;99107.12;;;;
2021/10/06 22:03:03;;;;;;;25.9;23.2;;;;;;;12.83;100;99109.82;;;;
2021/10/06 22:13:02;;;;;;;23.4;20.9;;;;;;;12.83;100;99118.74;;;;
2021/10/06 22:23:02;;;;;;;21.3;19;;;;;;;12.81;100;99118.23;;;;
2021/10/06 22:33:01;;;;;;;26.6;19.4;;;;;;;12.87;100;99127.04;;;;
2021/10/06 22:43:01;;;;;;;17.4;15.7;;;;;;;12.77;100;99128.09;;;;
2021/10/06 22:53:00;;;;;;;18.3;16.4;;;;;;;12.78;100;99145.09;;;;
2021/10/06 23:03:03;;;;;;;15.5;14;;;;;;;12.65;100;99151.38;;;;
2021/10/06 23:12:59;;;;;;;22;14.7;;;;;;;12.66;100;99158.39;;;;
2021/10/06 23:22:58;;;;;;;19;14.8;;;;;;;12.61;100;99164.7;;;;
2021/10/06 23:32:58;;;;;;;19.2;13.7;;;;;;;12.55;100;99171.34;;;;
2021/10/06 23:42:57;;;;;;;20;15.8;;;;;;;12.77;100;99182.19;;;;
2021/10/06 23:52:56;;;;;;;18.3;15.6;;;;;;;12.78;100;99188.38;;;;
